Time;durP1;ratioP1;P1;durP2;ratioP2;P2;SDS_P1;SDS_P2;PMS_P1;PMS_P2;Temp;Humidity;BMP_temperature;BMP_pressure;BME280_temperature;BME280_humidity;BME280_pressure;Samples;Min_cycle;Max_cycle;Signal;HPM_P1;HPM_P2
2024/04/07 00:02:17;;;;;;;6.00;3.20;;;14.70;96.70;;;;;;5070964;28;20039;-70
2024/04/07 00:04:47;;;;;;;6.13;2.60;;;14.60;96.70;;;;;;5071026;28;20507;-69
2024/04/07 00:07:15;;;;;;;5.22;2.65;;;14.60;96.70;;;;;;5054378;28;20071;-69
2024/04/07 00:09:42;;;;;;;3.55;2.35;;;14.60;96.70;;;;;;5070755;28;20036;-70
2024/04/07 00:12:10;;;;;;;3.58;1.73;;;14.50;96.70;;;;;;5087391;28;20397;-70
2024/04/07 00:14:38;;;;;;;3.20;1.83;;;14.50;96.70;;;;;;5053700;28;20151;-70
2024/04/07 00:17:06;;;;;;;4.35;1.80;;;14.30;96.70;;;;;;5050593;28;20040;-70
2024/04/07 00:19:34;;;;;;;5.28;1.70;;;14.30;96.70;;;;;;5066822;28;20058;-69
2024/04/07 00:22:07;;;;;;;3.22;1.40;;;14.30;96.70;;;;;;5054233;28;20146;-70
2024/04/07 00:24:35;;;;;;;5.38;1.70;;;14.30;96.70;;;;;;5051074;28;20044;-70
2024/04/07 00:27:04;;;;;;;3.15;1.33;;;14.30;96.70;;;;;;5069797;28;20052;-70
2024/04/07 00:29:33;;;;;;;3.00;1.02;;;14.30;96.70;;;;;;5066967;28;20048;-69
2024/04/07 00:32:02;;;;;;;3.53;1.45;;;14.20;96.70;;;;;;5075303;28;20535;-70
2024/04/07 00:34:31;;;;;;;2.70;1.25;;;14.20;96.70;;;;;;5058751;28;20063;-70
2024/04/07 00:36:59;;;;;;;2.70;1.30;;;14.10;96.70;;;;;;5058003;28;20419;-69
2024/04/07 00:39:29;;;;;;;2.75;1.45;;;14.10;96.70;;;;;;5073935;28;20052;-70
2024/04/07 00:41:56;;;;;;;4.03;1.48;;;14.20;96.70;;;;;;5075292;28;20059;-70
2024/04/07 00:44:25;;;;;;;3.30;1.20;;;14.20;96.70;;;;;;5091420;28;20065;-70
2024/04/07 00:46:53;;;;;;;4.05;2.00;;;14.20;96.70;;;;;;5057771;28;20416;-70
2024/04/07 00:49:21;;;;;;;2.67;1.00;;;14.20;96.70;;;;;;5057524;28;20047;-70
2024/04/07 00:51:50;;;;;;;3.45;1.50;;;14.10;96.70;;;;;;5070983;28;20040;-70
2024/04/07 00:54:20;;;;;;;2.30;1.10;;;14.00;96.70;;;;;;5057240;28;20051;-69
2024/04/07 00:56:50;;;;;;;3.08;1.17;;;13.90;96.70;;;;;;5057908;28;20140;-69
2024/04/07 00:59:18;;;;;;;4.15;1.33;;;14.00;96.70;;;;;;5074816;28;20504;-69
2024/04/07 01:01:45;;;;;;;2.42;1.23;;;13.90;96.70;;;;;;5058833;27;20078;-70
2024/04/07 01:04:13;;;;;;;3.00;1.40;;;14.00;96.70;;;;;;5074268;28;20158;-69
2024/04/07 01:06:41;;;;;;;3.92;1.50;;;14.10;96.70;;;;;;5082734;28;20537;-69
2024/04/07 01:09:09;;;;;;;2.90;1.33;;;14.10;96.70;;;;;;5070487;28;20044;-69
2024/04/07 01:11:38;;;;;;;3.30;1.20;;;14.00;96.70;;;;;;5058171;28;20047;-69
2024/04/07 01:14:07;;;;;;;2.53;1.15;;;14.10;96.70;;;;;;5057389;28;20151;-69
2024/04/07 01:16:36;;;;;;;3.47;1.80;;;14.10;96.70;;;;;;5057008;28;20043;-69
2024/04/07 01:19:03;;;;;;;3.58;1.15;;;14.00;96.70;;;;;;5057477;28;20454;-69
2024/04/07 01:21:30;;;;;;;3.83;1.90;;;14.00;96.70;;;;;;5057175;28;20245;-70
2024/04/07 01:23:59;;;;;;;2.70;1.50;;;14.00;96.70;;;;;;5069768;28;20044;-70
2024/04/07 01:26:29;;;;;;;2.45;1.20;;;14.10;96.70;;;;;;5056142;28;20517;-70
2024/04/07 01:28:56;;;;;;;2.63;1.20;;;14.10;96.70;;;;;;5065139;28;20065;-70
2024/04/07 01:31:25;;;;;;;2.75;1.27;;;14.00;96.70;;;;;;5034050;28;20139;-69
2024/04/07 01:33:53;;;;;;;3.00;1.52;;;14.00;96.70;;;;;;5030814;28;20134;-69
2024/04/07 01:36:21;;;;;;;3.13;1.42;;;13.90;96.70;;;;;;5050946;28;20044;-70
2024/04/07 01:38:50;;;;;;;2.58;1.30;;;13.90;96.70;;;;;;5050585;28;20215;-69
2024/04/07 01:41:19;;;;;;;2.83;1.33;;;13.80;96.70;;;;;;5033654;28;20048;-69
2024/04/07 01:43:46;;;;;;;2.83;1.30;;;13.60;96.70;;;;;;5048079;28;20102;-70
2024/04/07 01:46:16;;;;;;;4.85;1.33;;;13.60;96.70;;;;;;5032559;28;20043;-70
2024/04/07 01:48:46;;;;;;;3.67;1.40;;;13.50;96.70;;;;;;5050642;28;20048;-70
2024/04/07 01:51:14;;;;;;;2.95;1.45;;;13.40;96.70;;;;;;5034131;28;20631;-70
2024/04/07 01:53:41;;;;;;;3.25;1.33;;;13.40;96.70;;;;;;5033853;28;20153;-69
2024/04/07 01:56:08;;;;;;;2.67;1.23;;;13.40;96.70;;;;;;5035132;28;20045;-70
2024/04/07 01:58:37;;;;;;;3.25;1.20;;;13.30;96.70;;;;;;5029793;28;20049;-69
2024/04/07 02:01:06;;;;;;;2.60;1.17;;;13.30;96.70;;;;;;5049078;28;20404;-69
2024/04/07 02:03:34;;;;;;;2.05;1.08;;;13.30;96.70;;;;;;5033641;28;20052;-70
2024/04/07 02:06:03;;;;;;;2.72;1.60;;;13.30;96.70;;;;;;5033595;28;20113;-70
2024/04/07 02:08:31;;;;;;;4.03;1.70;;;13.20;96.70;;;;;;5033781;28;20564;-70
2024/04/07 02:10:58;;;;;;;2.00;1.25;;;13.20;96.70;;;;;;5048509;28;20044;-68
2024/04/07 02:13:26;;;;;;;2.30;1.25;;;13.20;96.70;;;;;;5033026;28;20135;-70
2024/04/07 02:16:02;;;;;;;2.67;1.25;;;13.30;96.70;;;;;;5050307;28;20052;-69
2024/04/07 02:18:31;;;;;;;3.95;1.83;;;13.30;96.70;;;;;;5066402;28;20041;-70
2024/04/07 02:20:59;;;;;;;4.55;1.70;;;13.30;96.70;;;;;;5050470;28;20051;-69
2024/04/07 02:23:27;;;;;;;4.40;2.00;;;13.20;96.70;;;;;;5033079;28;20052;-70
2024/04/07 02:25:54;;;;;;;3.72;1.67;;;13.20;96.70;;;;;;5048881;28;20072;-70
2024/04/07 02:28:23;;;;;;;4.35;1.60;;;13.10;96.70;;;;;;5050274;28;20091;-70
2024/04/07 02:30:51;;;;;;;3.03;1.45;;;13.10;96.70;;;;;;5049735;28;20527;-70
2024/04/07 02:33:19;;;;;;;3.17;1.38;;;13.10;96.70;;;;;;5064207;28;20366;-70
2024/04/07 02:35:48;;;;;;;6.70;1.70;;;13.10;96.70;;;;;;5047650;28;20040;-70
2024/04/07 02:38:17;;;;;;;2.83;1.40;;;13.00;96.70;;;;;;5061497;28;20047;-70
2024/04/07 02:40:45;;;;;;;4.18;1.45;;;12.90;96.70;;;;;;5049715;28;20052;-70
2024/04/07 02:43:14;;;;;;;2.85;1.10;;;12.90;96.70;;;;;;5063435;28;20070;-70
2024/04/07 02:48:29;;;;;;;2.70;1.15;;;12.90;96.70;;;;;;5065005;28;20036;-70
2024/04/07 02:50:57;;;;;;;3.22;0.95;;;12.90;96.70;;;;;;5047827;28;20052;-70
2024/04/07 02:53:26;;;;;;;3.63;1.27;;;13.00;96.70;;;;;;5047581;28;20101;-70
2024/04/07 02:55:54;;;;;;;3.78;1.77;;;12.90;96.70;;;;;;5065554;28;20040;-70
2024/04/07 02:58:22;;;;;;;3.88;1.38;;;12.90;96.70;;;;;;5048888;28;20055;-69
2024/04/07 03:00:51;;;;;;;4.60;1.30;;;12.80;96.70;;;;;;5049164;28;20102;-69
2024/04/07 03:03:19;;;;;;;5.78;1.20;;;12.80;96.70;;;;;;5064984;28;20052;-69
2024/04/07 03:05:48;;;;;;;3.80;1.42;;;12.80;96.70;;;;;;5032521;28;20045;-69
2024/04/07 03:08:16;;;;;;;4.28;1.55;;;12.80;96.70;;;;;;5048561;28;20044;-70
2024/04/07 03:10:43;;;;;;;2.38;1.23;;;12.90;96.70;;;;;;5031923;28;20052;-70
2024/04/07 03:13:10;;;;;;;3.67;1.40;;;12.80;96.70;;;;;;5065583;28;20045;-70
2024/04/07 03:15:39;;;;;;;4.30;2.00;;;12.80;96.70;;;;;;5048884;28;20119;-69
2024/04/07 03:18:07;;;;;;;2.17;1.02;;;12.90;96.70;;;;;;5030882;28;20536;-70
2024/04/07 03:20:34;;;;;;;3.13;1.42;;;12.90;96.70;;;;;;5032220;28;20604;-70
2024/04/07 03:23:06;;;;;;;3.13;1.65;;;12.90;96.70;;;;;;5044010;28;20049;-70
2024/04/07 03:25:34;;;;;;;4.25;1.38;;;12.90;96.70;;;;;;5062581;28;20052;-69
2024/04/07 03:28:02;;;;;;;5.65;1.48;;;12.90;96.70;;;;;;5046887;28;20142;-70
2024/04/07 03:30:31;;;;;;;2.80;1.40;;;12.90;96.70;;;;;;5035784;28;20056;-70
2024/04/07 03:32:58;;;;;;;2.65;1.50;;;12.80;96.70;;;;;;5048940;28;20080;-70
2024/04/07 03:35:27;;;;;;;2.65;1.35;;;12.80;96.70;;;;;;5044316;28;20060;-71
2024/04/07 03:37:58;;;;;;;2.33;1.48;;;12.70;96.70;;;;;;5046236;28;20147;-70
2024/04/07 03:40:27;;;;;;;3.00;1.25;;;12.60;96.70;;;;;;5032067;28;20047;-70
2024/04/07 03:42:56;;;;;;;3.53;1.25;;;12.60;96.70;;;;;;5042793;28;20052;-69
2024/04/07 03:45:24;;;;;;;3.00;1.48;;;12.60;96.70;;;;;;5036551;28;20048;-68
2024/04/07 03:47:52;;;;;;;4.30;1.58;;;12.50;96.70;;;;;;5032329;28;20048;-70
2024/04/07 03:50:21;;;;;;;3.38;1.45;;;12.50;96.70;;;;;;5048497;28;20144;-70
2024/04/07 03:52:49;;;;;;;4.00;1.58;;;12.40;96.70;;;;;;5048621;28;20044;-70
2024/04/07 03:55:18;;;;;;;2.78;1.55;;;12.40;96.70;;;;;;5047774;28;20044;-70
2024/04/07 03:57:47;;;;;;;3.38;1.55;;;12.40;96.70;;;;;;5048575;28;20047;-69
2024/04/07 04:00:15;;;;;;;3.85;1.77;;;12.40;96.70;;;;;;5031265;28;20052;-70
2024/04/07 04:02:45;;;;;;;3.55;1.73;;;12.40;96.70;;;;;;5061484;28;20502;-68
2024/04/07 04:05:12;;;;;;;2.25;1.45;;;12.30;96.70;;;;;;5047814;28;20048;-69
2024/04/07 04:07:40;;;;;;;3.70;1.92;;;12.40;96.70;;;;;;5060564;28;20530;-70
2024/04/07 04:10:10;;;;;;;2.55;1.40;;;12.40;96.70;;;;;;5044275;28;20045;-70
2024/04/07 04:12:39;;;;;;;3.72;2.05;;;12.40;96.70;;;;;;5048008;28;20179;-69
2024/04/07 04:15:09;;;;;;;3.95;1.55;;;12.40;96.70;;;;;;5030273;28;20048;-69
2024/04/07 04:17:38;;;;;;;3.90;1.60;;;12.40;96.70;;;;;;5036994;28;20127;-70
2024/04/07 04:20:08;;;;;;;2.47;1.50;;;12.40;96.70;;;;;;5045708;28;20052;-70
2024/04/07 04:22:37;;;;;;;3.78;1.58;;;12.30;96.70;;;;;;5028794;28;20048;-70
2024/04/07 04:25:05;;;;;;;3.05;1.15;;;12.30;96.70;;;;;;5039552;28;20057;-70
2024/04/07 04:27:32;;;;;;;4.07;1.58;;;12.30;96.70;;;;;;5047837;28;20045;-70
2024/04/07 04:29:59;;;;;;;3.35;1.10;;;12.20;96.70;;;;;;5071079;28;20064;-70
2024/04/07 04:32:31;;;;;;;2.47;1.20;;;12.10;96.70;;;;;;5030407;28;20133;-70
2024/04/07 04:35:00;;;;;;;3.53;1.50;;;12.10;96.70;;;;;;5052566;28;20094;-70
2024/04/07 04:37:28;;;;;;;3.42;1.35;;;12.10;96.70;;;;;;5044840;28;20044;-70
2024/04/07 04:39:55;;;;;;;3.80;0.98;;;12.10;96.70;;;;;;5072175;28;20125;-70
2024/04/07 04:42:22;;;;;;;4.05;1.67;;;12.10;96.70;;;;;;5033097;28;20424;-70
2024/04/07 04:44:49;;;;;;;2.67;1.20;;;12.10;96.70;;;;;;5047887;28;20094;-71
2024/04/07 04:47:17;;;;;;;3.45;2.00;;;12.10;96.70;;;;;;5063986;28;20478;-71
2024/04/07 04:49:47;;;;;;;1.83;0.88;;;12.00;96.70;;;;;;5058116;28;20438;-71
2024/04/07 04:52:14;;;;;;;2.03;1.13;;;12.00;96.70;;;;;;5035269;28;20568;-70
2024/04/07 04:54:42;;;;;;;3.35;1.33;;;11.90;96.70;;;;;;5035039;28;20056;-71
2024/04/07 04:57:10;;;;;;;2.08;1.10;;;11.90;96.70;;;;;;5032365;28;20048;-71
2024/04/07 04:59:39;;;;;;;3.45;1.63;;;12.00;96.70;;;;;;5048348;28;20071;-70
2024/04/07 05:02:07;;;;;;;7.10;1.60;;;12.00;96.70;;;;;;5048585;28;20049;-70
2024/04/07 05:04:34;;;;;;;3.25;1.23;;;12.00;96.70;;;;;;5033479;28;20080;-71
2024/04/07 05:07:04;;;;;;;2.45;1.17;;;12.00;96.70;;;;;;5026258;28;20470;-70
2024/04/07 05:09:32;;;;;;;2.85;1.25;;;12.10;96.70;;;;;;5040251;28;20048;-71
2024/04/07 05:11:59;;;;;;;3.00;1.50;;;12.20;96.70;;;;;;5037247;28;20082;-70
2024/04/07 05:14:29;;;;;;;3.80;1.40;;;12.20;96.70;;;;;;5050833;28;20045;-71
2024/04/07 05:16:58;;;;;;;2.33;1.58;;;12.20;96.70;;;;;;5058733;28;20726;-71
2024/04/07 05:19:26;;;;;;;5.72;4.90;;;12.20;96.70;;;;;;5069876;28;20056;-71
2024/04/07 05:21:56;;;;;;;13.90;12.52;;;12.20;96.70;;;;;;5043722;28;20082;-71
2024/04/07 05:24:28;;;;;;;9.57;8.55;;;12.20;96.70;;;;;;5028915;28;20101;-70
2024/04/07 05:26:58;;;;;;;6.97;6.28;;;12.30;96.70;;;;;;5032011;28;20041;-70
2024/04/07 05:29:26;;;;;;;6.88;5.28;;;12.30;96.70;;;;;;5039241;28;20062;-71
2024/04/07 05:31:53;;;;;;;5.55;4.30;;;12.40;96.70;;;;;;5061456;28;20048;-71
2024/04/07 05:34:24;;;;;;;4.90;3.35;;;12.40;96.70;;;;;;5063392;28;20051;-70
2024/04/07 05:36:52;;;;;;;3.55;2.22;;;12.40;96.70;;;;;;5049530;28;20450;-71
2024/04/07 05:39:19;;;;;;;3.00;1.70;;;12.40;96.70;;;;;;5065570;28;20048;-71
2024/04/07 05:41:48;;;;;;;3.42;1.77;;;12.50;96.70;;;;;;5042625;28;20417;-70
2024/04/07 05:44:16;;;;;;;4.30;1.70;;;12.50;96.70;;;;;;5043472;28;20044;-70
2024/04/07 05:46:44;;;;;;;3.78;1.83;;;12.60;96.70;;;;;;5033023;28;20178;-70
2024/04/07 05:49:11;;;;;;;5.47;1.92;;;12.70;96.70;;;;;;5057695;28;20134;-71
2024/04/07 05:51:39;;;;;;;3.38;1.92;;;12.70;96.70;;;;;;5063269;28;20044;-71
2024/04/07 05:54:06;;;;;;;5.35;3.03;;;12.70;96.70;;;;;;5051868;28;20516;-71
2024/04/07 05:56:34;;;;;;;7.80;5.25;;;12.70;96.70;;;;;;5036476;28;20048;-71
2024/04/07 05:59:03;;;;;;;10.63;6.07;;;12.70;96.70;;;;;;5048276;28;20662;-71
2024/04/07 06:01:31;;;;;;;15.38;8.43;;;12.80;96.70;;;;;;5055023;28;20056;-71
2024/04/07 06:03:58;;;;;;;14.60;9.00;;;12.80;96.70;;;;;;5063039;28;20120;-70
2024/04/07 06:06:26;;;;;;;13.52;8.43;;;12.90;96.70;;;;;;5044627;28;20040;-70
2024/04/07 06:08:53;;;;;;;15.40;9.68;;;12.90;96.70;;;;;;5039059;28;20048;-71
2024/04/07 06:11:21;;;;;;;16.33;8.77;;;12.90;96.70;;;;;;5058518;28;20850;-70
2024/04/07 06:13:48;;;;;;;13.20;8.80;;;13.00;96.70;;;;;;5056292;28;20045;-70
2024/04/07 06:16:17;;;;;;;13.63;8.70;;;13.00;96.70;;;;;;5032942;28;20105;-71
2024/04/07 06:18:47;;;;;;;15.80;8.10;;;13.10;96.70;;;;;;5045465;28;20148;-71
2024/04/07 06:21:16;;;;;;;8.80;6.80;;;13.10;96.70;;;;;;5049502;28;20078;-70
2024/04/07 06:23:43;;;;;;;12.52;8.05;;;13.20;96.70;;;;;;5045841;28;20561;-71
2024/04/07 06:26:11;;;;;;;15.60;10.57;;;13.30;96.70;;;;;;5039834;28;20194;-71
2024/04/07 06:28:38;;;;;;;19.20;11.40;;;13.30;96.70;;;;;;5055822;28;20040;-71
2024/04/07 06:31:06;;;;;;;22.98;13.50;;;13.50;96.70;;;;;;5071947;28;20598;-71
2024/04/07 06:33:35;;;;;;;24.40;15.38;;;13.50;96.70;;;;;;5084803;28;20048;-70
2024/04/07 06:36:04;;;;;;;24.52;15.30;;;13.50;96.70;;;;;;5052988;28;20139;-71
2024/04/07 06:38:32;;;;;;;21.52;14.52;;;13.40;96.70;;;;;;5071726;28;20055;-71
2024/04/07 06:41:00;;;;;;;18.15;11.73;;;13.50;96.70;;;;;;5072068;28;20088;-71
2024/04/07 06:43:27;;;;;;;14.27;9.63;;;13.50;96.70;;;;;;5056291;28;20085;-71
2024/04/07 06:45:58;;;;;;;15.88;9.50;;;13.60;96.70;;;;;;5072052;28;20077;-70
2024/04/07 06:48:25;;;;;;;13.98;8.05;;;13.60;96.70;;;;;;5055389;28;20056;-71
2024/04/07 06:50:54;;;;;;;12.07;7.30;;;13.70;96.70;;;;;;5056214;28;20142;-71
2024/04/07 06:53:22;;;;;;;11.88;7.65;;;13.70;96.70;;;;;;5060981;28;20510;-70
2024/04/07 06:55:49;;;;;;;11.32;8.43;;;13.80;96.70;;;;;;5055962;27;20135;-70
2024/04/07 06:58:17;;;;;;;12.57;8.43;;;13.90;96.70;;;;;;5093570;28;20449;-71
2024/04/07 07:00:44;;;;;;;13.30;8.60;;;13.90;96.70;;;;;;5055039;28;20035;-70
2024/04/07 07:03:11;;;;;;;11.40;7.38;;;13.90;96.70;;;;;;5055915;28;20043;-70
2024/04/07 07:05:39;;;;;;;13.85;7.63;;;13.90;96.70;;;;;;5053941;28;20067;-70
2024/04/07 07:08:07;;;;;;;10.23;7.18;;;13.90;96.70;;;;;;5071136;28;20040;-70
2024/04/07 07:10:38;;;;;;;8.65;6.13;;;14.00;96.70;;;;;;5054424;28;20061;-71
2024/04/07 07:13:06;;;;;;;8.45;5.30;;;14.10;96.70;;;;;;5054382;28;20058;-70
2024/04/07 07:15:33;;;;;;;8.75;4.72;;;14.10;96.70;;;;;;5069974;28;20044;-71
2024/04/07 07:18:01;;;;;;;6.38;4.75;;;14.20;96.70;;;;;;5069605;28;20098;-70
2024/04/07 07:20:28;;;;;;;6.60;4.50;;;14.30;96.70;;;;;;5070380;28;20051;-70
2024/04/07 07:22:55;;;;;;;7.28;4.53;;;14.30;96.70;;;;;;5051368;28;20085;-71
2024/04/07 07:25:24;;;;;;;5.88;4.40;;;14.40;96.70;;;;;;5053048;28;20056;-68
2024/04/07 07:27:52;;;;;;;7.80;4.32;;;14.50;96.70;;;;;;5070471;28;20105;-71
2024/04/07 07:30:20;;;;;;;6.10;3.88;;;14.60;96.70;;;;;;5070274;28;20086;-70
2024/04/07 07:32:49;;;;;;;6.65;4.18;;;14.60;96.70;;;;;;5069778;28;20040;-70
2024/04/07 07:35:17;;;;;;;4.55;3.50;;;14.60;96.70;;;;;;5070704;28;20138;-71
2024/04/07 07:37:46;;;;;;;4.10;3.00;;;14.70;96.70;;;;;;5053035;28;20058;-70
2024/04/07 07:40:14;;;;;;;6.05;3.55;;;14.80;96.70;;;;;;5054072;28;20234;-70
2024/04/07 07:42:43;;;;;;;4.57;3.20;;;14.80;96.70;;;;;;5054112;28;20081;-68
2024/04/07 07:45:11;;;;;;;4.78;3.25;;;14.80;96.70;;;;;;5057112;28;20051;-70
2024/04/07 07:47:38;;;;;;;4.80;3.20;;;14.80;96.70;;;;;;5070853;28;20040;-71
2024/04/07 07:50:06;;;;;;;5.68;3.42;;;14.80;96.70;;;;;;5069917;28;20043;-71
2024/04/07 07:52:34;;;;;;;5.00;3.25;;;14.90;96.70;;;;;;5072688;28;20044;-71
2024/04/07 07:55:03;;;;;;;4.55;3.25;;;15.10;96.70;;;;;;5054039;28;20052;-70
2024/04/07 07:57:30;;;;;;;5.03;3.25;;;15.20;96.70;;;;;;5069410;28;20063;-71
2024/04/07 07:59:59;;;;;;;5.72;2.97;;;15.30;96.70;;;;;;5054354;28;20051;-71
2024/04/07 08:02:26;;;;;;;4.95;2.72;;;15.40;96.70;;;;;;5050763;28;20060;-70
2024/04/07 08:04:54;;;;;;;5.28;3.03;;;15.50;96.70;;;;;;5069971;28;20052;-70
2024/04/07 08:07:21;;;;;;;3.97;2.70;;;15.60;96.70;;;;;;5070482;28;20062;-70
2024/04/07 08:09:49;;;;;;;6.38;3.15;;;15.70;96.70;;;;;;5052524;28;20044;-70
2024/04/07 08:12:16;;;;;;;4.32;2.70;;;15.80;96.70;;;;;;5069077;28;20098;-71
2024/04/07 08:14:45;;;;;;;6.93;3.38;;;15.90;96.70;;;;;;5069906;28;20134;-70
2024/04/07 08:17:15;;;;;;;4.38;2.83;;;16.00;96.70;;;;;;5069389;28;20771;-71
2024/04/07 08:19:45;;;;;;;5.70;3.10;;;16.10;96.70;;;;;;5051109;28;20527;-71
2024/04/07 08:22:13;;;;;;;8.00;3.33;;;16.10;96.70;;;;;;5085132;28;20119;-71
2024/04/07 08:24:42;;;;;;;8.43;3.30;;;16.10;96.70;;;;;;5052934;28;20755;-70
2024/04/07 08:27:10;;;;;;;6.50;3.55;;;16.20;96.70;;;;;;5070886;28;20036;-71
2024/04/07 08:29:40;;;;;;;6.30;3.42;;;16.30;96.70;;;;;;5066061;28;20052;-71
2024/04/07 08:32:08;;;;;;;3.47;2.75;;;16.40;96.70;;;;;;5039813;28;20048;-70
2024/04/07 08:34:37;;;;;;;4.70;2.85;;;16.60;96.70;;;;;;5063458;28;20094;-71
2024/04/07 08:37:08;;;;;;;4.95;2.67;;;16.60;96.70;;;;;;5053359;28;20051;-70
2024/04/07 08:39:36;;;;;;;3.22;2.72;;;16.70;96.70;;;;;;5031835;28;20127;-71
2024/04/07 08:42:09;;;;;;;3.50;2.80;;;16.70;96.70;;;;;;5032979;28;20052;-70
2024/04/07 08:44:38;;;;;;;5.78;2.78;;;16.70;96.70;;;;;;5040465;28;20044;-71
2024/04/07 08:47:07;;;;;;;5.07;3.00;;;16.80;96.70;;;;;;5040683;28;20493;-70
2024/04/07 08:49:38;;;;;;;7.55;4.03;;;16.80;96.70;;;;;;5048629;28;20045;-70
2024/04/07 08:52:09;;;;;;;5.72;3.47;;;16.90;96.70;;;;;;5060449;28;20051;-70
2024/04/07 08:54:37;;;;;;;4.22;2.88;;;17.00;96.70;;;;;;5035045;28;20041;-70
2024/04/07 08:57:08;;;;;;;5.60;3.75;;;17.00;96.70;;;;;;5034740;28;20048;-70
2024/04/07 08:59:38;;;;;;;4.80;3.10;;;17.10;96.70;;;;;;5080335;28;20059;-70
2024/04/07 09:02:08;;;;;;;4.50;2.88;;;17.20;96.70;;;;;;5048470;28;20052;-70
2024/04/07 09:04:39;;;;;;;3.67;2.25;;;17.30;96.70;;;;;;5057934;28;20052;-69
2024/04/07 09:07:10;;;;;;;3.72;2.55;;;17.40;96.70;;;;;;5044014;28;20048;-69
2024/04/07 09:09:37;;;;;;;5.80;2.80;;;17.40;96.70;;;;;;5044306;28;20052;-70
2024/04/07 09:12:10;;;;;;;4.75;2.95;;;17.50;96.70;;;;;;5046684;28;20044;-69
2024/04/07 09:14:44;;;;;;;4.45;2.92;;;17.60;96.70;;;;;;5044932;28;20047;-70
2024/04/07 09:17:13;;;;;;;9.07;3.45;;;17.60;96.70;;;;;;5035152;28;20464;-70
2024/04/07 09:19:43;;;;;;;7.45;3.30;;;17.80;96.70;;;;;;5043711;28;20155;-70
2024/04/07 09:22:12;;;;;;;6.00;3.78;;;17.90;96.70;;;;;;5052225;28;20127;-69
2024/04/07 09:24:40;;;;;;;6.82;3.47;;;17.90;96.70;;;;;;5048630;28;20048;-70
2024/04/07 09:27:12;;;;;;;4.55;2.95;;;17.90;96.70;;;;;;5035811;28;20051;-69
2024/04/07 09:29:41;;;;;;;5.35;3.60;;;18.00;96.70;;;;;;5052413;28;20111;-70
2024/04/07 09:32:09;;;;;;;5.80;3.40;;;18.10;96.70;;;;;;5063422;28;20052;-70
2024/04/07 09:34:38;;;;;;;5.05;3.00;;;18.40;96.70;;;;;;5051496;28;20059;-72
2024/04/07 09:37:09;;;;;;;6.97;3.83;;;18.50;96.70;;;;;;5044284;28;20170;-71
2024/04/07 09:39:41;;;;;;;4.57;2.80;;;18.50;96.70;;;;;;5042911;28;20539;-72
2024/04/07 09:42:17;;;;;;;5.03;3.13;;;18.60;96.70;;;;;;5053367;28;20139;-72
2024/04/07 09:44:47;;;;;;;6.07;3.70;;;18.70;96.70;;;;;;5026949;28;20060;-72
2024/04/07 09:47:16;;;;;;;7.05;3.20;;;18.70;96.70;;;;;;5048061;28;20048;-70
2024/04/07 09:49:47;;;;;;;4.75;3.10;;;18.70;96.70;;;;;;5039804;28;20090;-72
2024/04/07 09:52:22;;;;;;;6.05;2.63;;;18.70;96.70;;;;;;5039618;28;20445;-71
2024/04/07 09:54:53;;;;;;;4.93;2.67;;;18.80;96.70;;;;;;5080976;28;20147;-70
2024/04/07 09:57:22;;;;;;;3.47;2.30;;;18.90;96.70;;;;;;5036969;28;20040;-72
2024/04/07 09:59:49;;;;;;;4.35;2.78;;;19.00;96.70;;;;;;5048367;28;20539;-71
2024/04/07 10:02:20;;;;;;;7.00;2.75;;;19.10;96.70;;;;;;5056928;28;20052;-71
2024/04/07 10:04:51;;;;;;;5.25;2.90;;;19.40;96.70;;;;;;5035765;28;20094;-70
2024/04/07 10:07:23;;;;;;;5.60;2.92;;;19.70;96.70;;;;;;5059641;28;20064;-72
2024/04/07 10:09:52;;;;;;;6.07;3.00;;;19.80;96.70;;;;;;5050289;28;20716;-72
2024/04/07 10:12:27;;;;;;;3.67;2.17;;;19.80;96.70;;;;;;5037382;28;20493;-72
2024/04/07 10:14:54;;;;;;;10.95;6.50;;;19.70;96.70;;;;;;5049526;28;20047;-69
2024/04/07 10:17:23;;;;;;;3.97;2.70;;;19.60;96.70;;;;;;5039160;28;20044;-72
2024/04/07 10:19:54;;;;;;;6.55;3.45;;;19.60;96.70;;;;;;5027801;28;20067;-72
2024/04/07 10:22:27;;;;;;;5.15;3.05;;;19.90;96.70;;;;;;5052702;28;20524;-71
2024/04/07 10:24:56;;;;;;;3.67;2.15;;;20.00;96.70;;;;;;5037607;28;20040;-72
2024/04/07 10:27:25;;;;;;;4.68;2.35;;;20.00;96.70;;;;;;5042039;28;20047;-72
2024/04/07 10:29:56;;;;;;;3.72;2.50;;;20.00;96.70;;;;;;5026693;28;20426;-71
2024/04/07 10:32:29;;;;;;;4.38;2.35;;;20.00;96.70;;;;;;5024307;28;20045;-71
2024/04/07 10:35:04;;;;;;;8.35;3.47;;;20.10;96.70;;;;;;5049320;28;20044;-71
2024/04/07 10:37:37;;;;;;;2.95;2.22;;;20.20;96.70;;;;;;5033180;28;20797;-71
2024/04/07 10:40:08;;;;;;;8.25;3.67;;;20.30;96.70;;;;;;5035201;28;20133;-70
2024/04/07 10:42:38;;;;;;;5.20;2.30;;;20.60;96.70;;;;;;5052620;28;20105;-70
2024/04/07 10:45:10;;;;;;;3.13;1.83;;;20.70;96.70;;;;;;5029392;28;20135;-70
2024/04/07 10:47:38;;;;;;;2.97;1.70;;;20.80;96.70;;;;;;5024973;28;20060;-71
2024/04/07 10:50:08;;;;;;;2.88;1.13;;;20.90;96.70;;;;;;5049551;28;20051;-70
2024/04/07 10:52:38;;;;;;;3.25;1.55;;;21.10;96.70;;;;;;5048546;28;20060;-70
2024/04/07 10:55:06;;;;;;;1.50;0.98;;;21.30;96.70;;;;;;5064921;28;20073;-70
2024/04/07 10:57:33;;;;;;;2.22;1.13;;;21.30;96.70;;;;;;5048563;28;20047;-70
2024/04/07 11:00:01;;;;;;;4.10;1.38;;;21.40;96.70;;;;;;5031878;28;20068;-70
2024/04/07 11:02:29;;;;;;;2.55;1.20;;;21.60;96.70;;;;;;5031720;28;20135;-70
2024/04/07 11:04:58;;;;;;;2.95;1.52;;;21.60;96.70;;;;;;5024704;28;20048;-70
2024/04/07 11:07:27;;;;;;;1.90;1.40;;;21.80;96.70;;;;;;5034306;28;20040;-69
2024/04/07 11:10:01;;;;;;;2.65;1.42;;;22.00;96.70;;;;;;5031589;28;20533;-70
2024/04/07 11:12:30;;;;;;;1.20;0.90;;;22.10;96.70;;;;;;5020593;28;20071;-70
2024/04/07 11:14:59;;;;;;;2.00;1.10;;;22.30;96.70;;;;;;5028431;28;20048;-70
2024/04/07 11:17:27;;;;;;;2.15;1.10;;;22.40;96.70;;;;;;5047386;28;20471;-70
2024/04/07 11:19:55;;;;;;;3.30;2.47;;;22.50;96.70;;;;;;5048139;28;20048;-70
2024/04/07 11:22:24;;;;;;;2.88;1.70;;;22.60;96.70;;;;;;5031413;28;20049;-70
2024/04/07 11:24:51;;;;;;;2.97;1.48;;;22.70;96.70;;;;;;5047509;28;20498;-70
2024/04/07 11:27:22;;;;;;;2.92;1.52;;;22.90;96.70;;;;;;5028707;28;20140;-70
2024/04/07 11:29:50;;;;;;;3.53;1.80;;;23.00;96.70;;;;;;5024878;28;20057;-70
2024/04/07 11:32:19;;;;;;;2.47;1.55;;;23.10;96.70;;;;;;5064604;28;20048;-71
2024/04/07 11:34:47;;;;;;;4.20;2.80;;;23.10;96.70;;;;;;5048154;28;20083;-71
2024/04/07 11:37:15;;;;;;;6.93;4.78;;;23.20;96.70;;;;;;5063383;28;20102;-70
2024/04/07 11:39:49;;;;;;;6.63;4.68;;;23.30;96.70;;;;;;5056327;28;20114;-70
2024/04/07 11:42:16;;;;;;;7.18;4.40;;;23.50;96.70;;;;;;5064113;28;20037;-70
2024/04/07 11:44:48;;;;;;;3.92;2.03;;;23.60;96.70;;;;;;5030740;28;20052;-70
2024/04/07 11:47:15;;;;;;;2.80;1.33;;;23.70;96.70;;;;;;5048081;28;20053;-70
2024/04/07 11:49:45;;;;;;;3.28;1.40;;;23.60;96.70;;;;;;5064013;28;20083;-71
2024/04/07 11:52:13;;;;;;;2.63;1.70;;;23.70;96.70;;;;;;5048258;28;20098;-71
2024/04/07 11:54:41;;;;;;;3.13;1.27;;;23.70;96.70;;;;;;5054380;28;20127;-70
2024/04/07 11:57:10;;;;;;;2.00;1.10;;;23.80;96.70;;;;;;5031494;28;20139;-71
2024/04/07 11:59:37;;;;;;;2.10;1.30;;;23.90;96.70;;;;;;5054806;28;20339;-71
2024/04/07 12:02:08;;;;;;;2.47;1.00;;;24.00;96.70;;;;;;5046780;28;20099;-70
2024/04/07 12:04:36;;;;;;;3.85;1.50;;;24.00;96.70;;;;;;5030845;28;20036;-70
2024/04/07 12:07:04;;;;;;;2.53;0.77;;;24.10;96.70;;;;;;5044278;28;20105;-70
2024/04/07 12:09:32;;;;;;;1.73;0.70;;;24.10;96.70;;;;;;5031833;28;20132;-70
2024/04/07 12:12:00;;;;;;;1.33;0.90;;;24.30;96.70;;;;;;5047343;28;20048;-71
2024/04/07 12:14:28;;;;;;;2.35;0.95;;;24.30;96.70;;;;;;5046531;28;21386;-69
2024/04/07 12:16:55;;;;;;;1.00;0.47;;;24.30;96.70;;;;;;5026285;28;20041;-70
2024/04/07 12:19:27;;;;;;;1.40;0.77;;;24.30;96.70;;;;;;5031154;28;20056;-70
2024/04/07 12:21:54;;;;;;;1.23;0.63;;;24.40;96.70;;;;;;5016797;28;20118;-70
2024/04/07 12:24:22;;;;;;;2.67;0.50;;;24.40;96.70;;;;;;5063027;28;20072;-70
2024/04/07 12:26:54;;;;;;;2.60;0.70;;;24.60;96.70;;;;;;5049833;28;20525;-70
2024/04/07 12:29:21;;;;;;;1.38;0.70;;;24.70;96.70;;;;;;5051390;28;20095;-71
2024/04/07 12:31:51;;;;;;;2.13;0.65;;;24.70;96.70;;;;;;5051663;28;20584;-71
2024/04/07 12:34:19;;;;;;;2.00;0.68;;;24.80;96.70;;;;;;5051524;28;20090;-71
2024/04/07 12:36:48;;;;;;;2.17;0.60;;;24.90;96.70;;;;;;5050266;28;20102;-70
2024/04/07 12:39:18;;;;;;;2.28;0.63;;;25.00;96.70;;;;;;5051362;28;20059;-71
2024/04/07 12:41:49;;;;;;;1.83;0.60;;;25.00;96.70;;;;;;5050707;28;20048;-71
2024/04/07 12:44:18;;;;;;;2.90;1.40;;;25.00;96.70;;;;;;5050931;28;20148;-71
2024/04/07 12:46:47;;;;;;;2.75;1.20;;;25.00;96.70;;;;;;5034824;28;20062;-71
2024/04/07 12:49:21;;;;;;;2.53;1.10;;;25.20;96.70;;;;;;5051188;28;20052;-70
2024/04/07 12:51:51;;;;;;;3.25;1.17;;;25.40;96.70;;;;;;5059270;28;20036;-70
2024/04/07 12:54:19;;;;;;;2.92;1.25;;;25.40;96.70;;;;;;5050659;28;20131;-71
2024/04/07 12:56:47;;;;;;;1.30;1.00;;;25.30;96.70;;;;;;5032106;28;20115;-70